Arpin, WI

2:58 AM CDT on September 20, 2014 (GMT -0500)
Marshfield Municipal | Change Station
CLOSE
Current Station
Airport
Location: Marshfield,
Elevation: 1276 ft
Nearby Weather Stations

Elev 1276 ft 44.64 °N, 90.19 °W | Updated 21 minutes ago

Rain
Rain
65 °F
Feels Like 65 °F
N
10
Wind Variable Wind from SW

Today
High -- | Low -- °F
--% Chance of Precip.
Yesterday
High -- | Low -- °F
Precip. -- in
6:44 AM 7:01 PM
Waning Crescent, 14% visible
Pressure 29.72 in
Visibility 8.0 miles
Clouds Overcast 1400 ft
Dew Point 61 °F
Humidity 87%
Rainfall 0.00 in
Snow Depth Not available.
UV 0 out of 12
Pollen 4.20 out of 12
Air Quality Not available.
Flu Activity Not available.
SPECI KMFI 200737Z AUTO 22009KT 8SM OVC014 18/16 A2972 RMK AO2 RAE36 P0000 T01830161

More Conditions Fewer Conditions

Pressure 29.72 in
Visibility 8.0 miles
Clouds Overcast 1400 ft
Dew Point 61 °F
Humidity 87%
Rainfall 0.00 in
Snow Depth Not available.
UV 0 out of 12
Pollen 4.20 out of 12
Air Quality Not available.
Flu Activity Not available.
SPECI KMFI 200737Z AUTO 22009KT 8SM OVC014 18/16 A2972 RMK AO2 RAE36 P0000 T01830161

More Conditions Fewer Conditions

10-Day Weather Forecast

Almanac

Astronomy

Sep. 20, 2014 Rise Set
Actual Time 6:44 AM CDT 7:01 PM CDT
Civil Twilight 6:15 AM CDT 7:30 PM CDT
Nautical Twilight 5:41 AM CDT 8:04 PM CDT
Astronomical Twilight 5:06 AM CDT 8:39 PM CDT
Moon 3:17 AM CDT 5:10 PM CDT
Length of Visible Light 13h 14m
Length of Day
12h 16m
Tomorrow will be 3m 3s shorter.
Waning Crescent, 14% of the Moon is Illuminated
Today
Waning Crescent
Sep 24
New
Oct 1
First Quarter
Oct 8
Full
Oct 15
Last Quarter

Today's Extremes

State Highs State Lows

Community

WunderPhotos

Upload Photos

1,754,793 photos uploaded!

WunderBlogs® & News

Nearby

Snow Depth

Station Depth Elevation
No new snow has been reported.

Earthquake Activity

City Distance Mag. Time & Date
No recent earthquake activity has been reported nearby.
Minimum magnitude displayed is 2.5.

Coastal Water Temperatures

Place Temperature
No Stations Reporting

Nearby Weather Stations